sensor_id;sensor_type;location;lat;lon;timestamp;P1;durP1;ratioP1;P2;durP2;ratioP2
13061;SDS011;6597;52.218;9.882;2023-07-13T00:01:31;9.57;;;3.17;;
13061;SDS011;6597;52.218;9.882;2023-07-13T00:03:58;5.07;;;2.67;;
13061;SDS011;6597;52.218;9.882;2023-07-13T00:06:25;4.38;;;2.78;;
13061;SDS011;6597;52.218;9.882;2023-07-13T00:08:57;4.57;;;2.75;;
13061;SDS011;6597;52.218;9.882;2023-07-13T00:11:24;5.70;;;2.95;;
13061;SDS011;6597;52.218;9.882;2023-07-13T00:13:51;5.68;;;2.40;;
13061;SDS011;6597;52.218;9.882;2023-07-13T00:16:18;3.65;;;2.60;;
13061;SDS011;6597;52.218;9.882;2023-07-13T00:18:46;4.65;;;2.90;;
13061;SDS011;6597;52.218;9.882;2023-07-13T00:21:13;7.20;;;2.70;;
13061;SDS011;6597;52.218;9.882;2023-07-13T00:23:40;5.00;;;2.78;;
13061;SDS011;6597;52.218;9.882;2023-07-13T00:26:08;5.38;;;3.00;;
13061;SDS011;6597;52.218;9.882;2023-07-13T00:28:37;3.45;;;2.63;;
13061;SDS011;6597;52.218;9.882;2023-07-13T00:31:04;5.90;;;2.63;;
13061;SDS011;6597;52.218;9.882;2023-07-13T00:33:30;5.60;;;2.80;;
13061;SDS011;6597;52.218;9.882;2023-07-13T00:35:59;5.80;;;2.78;;
13061;SDS011;6597;52.218;9.882;2023-07-13T00:38:26;5.15;;;3.10;;
13061;SDS011;6597;52.218;9.882;2023-07-13T00:40:52;5.28;;;3.00;;
13061;SDS011;6597;52.218;9.882;2023-07-13T00:43:21;3.30;;;2.30;;
13061;SDS011;6597;52.218;9.882;2023-07-13T00:46:11;7.30;;;3.20;;
13061;SDS011;6597;52.218;9.882;2023-07-13T00:48:40;6.80;;;2.63;;
13061;SDS011;6597;52.218;9.882;2023-07-13T00:51:10;7.28;;;3.13;;
13061;SDS011;6597;52.218;9.882;2023-07-13T00:53:39;4.82;;;2.42;;
13061;SDS011;6597;52.218;9.882;2023-07-13T00:56:06;3.40;;;2.35;;
13061;SDS011;6597;52.218;9.882;2023-07-13T00:58:33;6.05;;;3.05;;
13061;SDS011;6597;52.218;9.882;2023-07-13T01:01:02;4.80;;;2.83;;
13061;SDS011;6597;52.218;9.882;2023-07-13T01:03:29;6.03;;;3.03;;
13061;SDS011;6597;52.218;9.882;2023-07-13T01:05:55;5.20;;;3.05;;
13061;SDS011;6597;52.218;9.882;2023-07-13T01:08:24;3.88;;;2.75;;
13061;SDS011;6597;52.218;9.882;2023-07-13T01:10:51;5.93;;;2.90;;
13061;SDS011;6597;52.218;9.882;2023-07-13T01:13:18;4.60;;;2.80;;
13061;SDS011;6597;52.218;9.882;2023-07-13T01:15:46;5.55;;;2.88;;
13061;SDS011;6597;52.218;9.882;2023-07-13T01:18:14;7.88;;;2.92;;
13061;SDS011;6597;52.218;9.882;2023-07-13T01:20:50;6.70;;;3.15;;
13061;SDS011;6597;52.218;9.882;2023-07-13T01:23:17;7.07;;;2.88;;
13061;SDS011;6597;52.218;9.882;2023-07-13T01:25:44;8.07;;;3.50;;
13061;SDS011;6597;52.218;9.882;2023-07-13T01:28:11;5.63;;;3.30;;
13061;SDS011;6597;52.218;9.882;2023-07-13T01:30:38;7.47;;;2.60;;
13061;SDS011;6597;52.218;9.882;2023-07-13T01:33:06;4.18;;;2.63;;
13061;SDS011;6597;52.218;9.882;2023-07-13T01:35:33;7.40;;;3.30;;
13061;SDS011;6597;52.218;9.882;2023-07-13T01:38:01;9.88;;;3.65;;
13061;SDS011;6597;52.218;9.882;2023-07-13T01:40:28;6.60;;;2.95;;
13061;SDS011;6597;52.218;9.882;2023-07-13T01:42:56;11.63;;;3.47;;
13061;SDS011;6597;52.218;9.882;2023-07-13T01:45:24;6.93;;;2.60;;
13061;SDS011;6597;52.218;9.882;2023-07-13T01:47:50;4.80;;;2.90;;
13061;SDS011;6597;52.218;9.882;2023-07-13T01:50:17;6.28;;;3.20;;
13061;SDS011;6597;52.218;9.882;2023-07-13T01:52:43;6.85;;;3.17;;
13061;SDS011;6597;52.218;9.882;2023-07-13T01:55:11;4.65;;;3.03;;
13061;SDS011;6597;52.218;9.882;2023-07-13T01:57:40;5.83;;;2.80;;
13061;SDS011;6597;52.218;9.882;2023-07-13T02:00:08;3.35;;;2.00;;
13061;SDS011;6597;52.218;9.882;2023-07-13T02:02:41;6.57;;;2.80;;
13061;SDS011;6597;52.218;9.882;2023-07-13T02:05:09;5.33;;;2.40;;
13061;SDS011;6597;52.218;9.882;2023-07-13T02:07:36;4.13;;;2.20;;
13061;SDS011;6597;52.218;9.882;2023-07-13T02:10:03;3.92;;;2.50;;
13061;SDS011;6597;52.218;9.882;2023-07-13T02:12:32;3.13;;;2.07;;
13061;SDS011;6597;52.218;9.882;2023-07-13T02:14:58;3.57;;;2.30;;
13061;SDS011;6597;52.218;9.882;2023-07-13T02:17:25;3.07;;;2.13;;
13061;SDS011;6597;52.218;9.882;2023-07-13T02:19:52;8.73;;;2.37;;
13061;SDS011;6597;52.218;9.882;2023-07-13T02:22:18;3.00;;;1.90;;
13061;SDS011;6597;52.218;9.882;2023-07-13T02:24:44;5.23;;;2.30;;
13061;SDS011;6597;52.218;9.882;2023-07-13T02:27:11;6.00;;;2.17;;
13061;SDS011;6597;52.218;9.882;2023-07-13T02:29:40;4.80;;;2.30;;
13061;SDS011;6597;52.218;9.882;2023-07-13T02:32:07;4.53;;;2.17;;
13061;SDS011;6597;52.218;9.882;2023-07-13T02:34:34;3.13;;;2.20;;
13061;SDS011;6597;52.218;9.882;2023-07-13T02:37:03;6.83;;;2.50;;
13061;SDS011;6597;52.218;9.882;2023-07-13T02:39:30;2.77;;;2.10;;
13061;SDS011;6597;52.218;9.882;2023-07-13T02:41:58;2.57;;;1.97;;
13061;SDS011;6597;52.218;9.882;2023-07-13T02:44:24;4.13;;;2.63;;
13061;SDS011;6597;52.218;9.882;2023-07-13T02:46:52;2.80;;;2.13;;
13061;SDS011;6597;52.218;9.882;2023-07-13T02:49:19;5.40;;;2.70;;
13061;SDS011;6597;52.218;9.882;2023-07-13T02:51:46;3.23;;;2.33;;
13061;SDS011;6597;52.218;9.882;2023-07-13T02:54:13;3.40;;;2.13;;
13061;SDS011;6597;52.218;9.882;2023-07-13T02:56:40;7.07;;;2.60;;
13061;SDS011;6597;52.218;9.882;2023-07-13T02:59:08;4.20;;;2.47;;
13061;SDS011;6597;52.218;9.882;2023-07-13T03:01:35;3.07;;;2.10;;
13061;SDS011;6597;52.218;9.882;2023-07-13T03:04:03;4.60;;;2.40;;
13061;SDS011;6597;52.218;9.882;2023-07-13T03:06:33;4.00;;;2.17;;
13061;SDS011;6597;52.218;9.882;2023-07-13T03:09:00;4.43;;;2.30;;
13061;SDS011;6597;52.218;9.882;2023-07-13T03:11:29;3.40;;;2.10;;
13061;SDS011;6597;52.218;9.882;2023-07-13T03:14:05;5.00;;;2.33;;
13061;SDS011;6597;52.218;9.882;2023-07-13T03:16:35;6.17;;;2.33;;
13061;SDS011;6597;52.218;9.882;2023-07-13T03:19:01;4.00;;;2.23;;
13061;SDS011;6597;52.218;9.882;2023-07-13T03:21:29;4.40;;;2.43;;
13061;SDS011;6597;52.218;9.882;2023-07-13T03:23:56;6.10;;;2.17;;
13061;SDS011;6597;52.218;9.882;2023-07-13T03:26:23;10.10;;;2.43;;
13061;SDS011;6597;52.218;9.882;2023-07-13T03:28:49;4.50;;;2.50;;
13061;SDS011;6597;52.218;9.882;2023-07-13T03:31:20;5.23;;;2.37;;
13061;SDS011;6597;52.218;9.882;2023-07-13T03:33:50;6.27;;;2.17;;
13061;SDS011;6597;52.218;9.882;2023-07-13T03:36:20;5.73;;;2.80;;
13061;SDS011;6597;52.218;9.882;2023-07-13T03:38:51;2.47;;;2.10;;
13061;SDS011;6597;52.218;9.882;2023-07-13T03:41:23;3.10;;;2.20;;
13061;SDS011;6597;52.218;9.882;2023-07-13T03:43:52;4.33;;;2.30;;
13061;SDS011;6597;52.218;9.882;2023-07-13T03:46:22;11.70;;;3.03;;
13061;SDS011;6597;52.218;9.882;2023-07-13T03:48:48;5.60;;;2.80;;
13061;SDS011;6597;52.218;9.882;2023-07-13T03:51:16;2.90;;;2.23;;
13061;SDS011;6597;52.218;9.882;2023-07-13T03:53:45;4.27;;;2.20;;
13061;SDS011;6597;52.218;9.882;2023-07-13T03:56:14;6.40;;;2.03;;
13061;SDS011;6597;52.218;9.882;2023-07-13T03:58:44;4.83;;;2.50;;
13061;SDS011;6597;52.218;9.882;2023-07-13T04:01:17;4.47;;;2.70;;
13061;SDS011;6597;52.218;9.882;2023-07-13T04:03:46;4.63;;;2.97;;
13061;SDS011;6597;52.218;9.882;2023-07-13T04:06:14;4.27;;;2.50;;
13061;SDS011;6597;52.218;9.882;2023-07-13T04:08:47;5.07;;;2.90;;
13061;SDS011;6597;52.218;9.882;2023-07-13T04:11:16;6.10;;;2.40;;
13061;SDS011;6597;52.218;9.882;2023-07-13T04:13:43;3.43;;;2.50;;
13061;SDS011;6597;52.218;9.882;2023-07-13T04:16:10;4.20;;;2.33;;
13061;SDS011;6597;52.218;9.882;2023-07-13T04:18:37;4.37;;;2.50;;
13061;SDS011;6597;52.218;9.882;2023-07-13T04:21:03;2.43;;;1.80;;
13061;SDS011;6597;52.218;9.882;2023-07-13T04:23:30;2.50;;;2.00;;
13061;SDS011;6597;52.218;9.882;2023-07-13T04:25:58;3.90;;;2.50;;
13061;SDS011;6597;52.218;9.882;2023-07-13T04:28:25;6.93;;;2.30;;
13061;SDS011;6597;52.218;9.882;2023-07-13T04:30:52;3.07;;;2.33;;
13061;SDS011;6597;52.218;9.882;2023-07-13T04:33:19;17.63;;;2.20;;
13061;SDS011;6597;52.218;9.882;2023-07-13T04:35:47;8.07;;;2.10;;
13061;SDS011;6597;52.218;9.882;2023-07-13T04:38:14;8.27;;;2.73;;
13061;SDS011;6597;52.218;9.882;2023-07-13T04:40:42;3.07;;;2.37;;
13061;SDS011;6597;52.218;9.882;2023-07-13T04:43:10;2.03;;;1.70;;
13061;SDS011;6597;52.218;9.882;2023-07-13T04:45:37;3.40;;;2.20;;
13061;SDS011;6597;52.218;9.882;2023-07-13T04:48:04;4.23;;;1.80;;
13061;SDS011;6597;52.218;9.882;2023-07-13T04:50:31;6.97;;;2.17;;
13061;SDS011;6597;52.218;9.882;2023-07-13T04:52:57;3.80;;;2.50;;
13061;SDS011;6597;52.218;9.882;2023-07-13T04:55:24;5.67;;;2.40;;
13061;SDS011;6597;52.218;9.882;2023-07-13T04:57:50;2.28;;;1.77;;
13061;SDS011;6597;52.218;9.882;2023-07-13T05:00:19;4.63;;;2.70;;
13061;SDS011;6597;52.218;9.882;2023-07-13T05:02:45;4.07;;;2.20;;
13061;SDS011;6597;52.218;9.882;2023-07-13T05:05:12;5.43;;;2.33;;
13061;SDS011;6597;52.218;9.882;2023-07-13T05:07:39;9.85;;;2.83;;
13061;SDS011;6597;52.218;9.882;2023-07-13T05:10:06;3.88;;;2.22;;
13061;SDS011;6597;52.218;9.882;2023-07-13T05:12:33;2.88;;;2.17;;
13061;SDS011;6597;52.218;9.882;2023-07-13T05:15:00;5.97;;;2.33;;
13061;SDS011;6597;52.218;9.882;2023-07-13T05:17:29;3.55;;;2.10;;
13061;SDS011;6597;52.218;9.882;2023-07-13T05:19:55;7.65;;;2.22;;
13061;SDS011;6597;52.218;9.882;2023-07-13T05:22:22;6.95;;;2.72;;
13061;SDS011;6597;52.218;9.882;2023-07-13T05:24:47;7.40;;;2.95;;
13061;SDS011;6597;52.218;9.882;2023-07-13T05:27:14;4.55;;;1.90;;
13061;SDS011;6597;52.218;9.882;2023-07-13T05:29:41;7.97;;;2.83;;
13061;SDS011;6597;52.218;9.882;2023-07-13T05:32:07;3.65;;;1.95;;
13061;SDS011;6597;52.218;9.882;2023-07-13T05:34:35;2.78;;;2.33;;
13061;SDS011;6597;52.218;9.882;2023-07-13T05:37:02;2.92;;;1.92;;
13061;SDS011;6597;52.218;9.882;2023-07-13T05:39:29;7.15;;;2.53;;
13061;SDS011;6597;52.218;9.882;2023-07-13T05:41:56;3.22;;;2.35;;
13061;SDS011;6597;52.218;9.882;2023-07-13T05:44:22;6.15;;;2.30;;
13061;SDS011;6597;52.218;9.882;2023-07-13T05:46:49;6.10;;;2.42;;
13061;SDS011;6597;52.218;9.882;2023-07-13T05:49:15;6.55;;;2.20;;
13061;SDS011;6597;52.218;9.882;2023-07-13T05:51:43;2.08;;;1.88;;
13061;SDS011;6597;52.218;9.882;2023-07-13T05:54:10;3.22;;;1.80;;
13061;SDS011;6597;52.218;9.882;2023-07-13T05:56:36;3.67;;;2.58;;
13061;SDS011;6597;52.218;9.882;2023-07-13T05:59:03;6.63;;;2.50;;
13061;SDS011;6597;52.218;9.882;2023-07-13T06:01:30;4.75;;;1.85;;
13061;SDS011;6597;52.218;9.882;2023-07-13T06:03:57;13.65;;;2.30;;
13061;SDS011;6597;52.218;9.882;2023-07-13T06:06:23;3.40;;;2.35;;
13061;SDS011;6597;52.218;9.882;2023-07-13T06:08:51;5.95;;;2.67;;
13061;SDS011;6597;52.218;9.882;2023-07-13T06:11:18;7.00;;;2.28;;
13061;SDS011;6597;52.218;9.882;2023-07-13T06:13:46;5.93;;;2.30;;
13061;SDS011;6597;52.218;9.882;2023-07-13T06:16:13;2.80;;;2.10;;
13061;SDS011;6597;52.218;9.882;2023-07-13T06:18:40;2.67;;;2.20;;
13061;SDS011;6597;52.218;9.882;2023-07-13T06:21:08;5.40;;;2.15;;
13061;SDS011;6597;52.218;9.882;2023-07-13T06:23:35;5.28;;;2.55;;
13061;SDS011;6597;52.218;9.882;2023-07-13T06:26:04;5.10;;;2.40;;
13061;SDS011;6597;52.218;9.882;2023-07-13T06:28:31;3.78;;;1.90;;
13061;SDS011;6597;52.218;9.882;2023-07-13T06:30:58;1.67;;;1.48;;
13061;SDS011;6597;52.218;9.882;2023-07-13T06:33:25;2.55;;;1.70;;
13061;SDS011;6597;52.218;9.882;2023-07-13T06:35:52;4.72;;;2.00;;
13061;SDS011;6597;52.218;9.882;2023-07-13T06:38:19;7.50;;;2.35;;
13061;SDS011;6597;52.218;9.882;2023-07-13T06:40:46;5.75;;;2.08;;
13061;SDS011;6597;52.218;9.882;2023-07-13T06:43:14;10.77;;;2.30;;
13061;SDS011;6597;52.218;9.882;2023-07-13T06:45:41;4.50;;;1.98;;
13061;SDS011;6597;52.218;9.882;2023-07-13T06:48:10;6.28;;;1.80;;
13061;SDS011;6597;52.218;9.882;2023-07-13T06:50:37;3.20;;;1.70;;
13061;SDS011;6597;52.218;9.882;2023-07-13T06:53:03;4.03;;;1.70;;
13061;SDS011;6597;52.218;9.882;2023-07-13T06:55:30;9.82;;;1.55;;
13061;SDS011;6597;52.218;9.882;2023-07-13T06:57:57;2.40;;;1.55;;
13061;SDS011;6597;52.218;9.882;2023-07-13T07:00:25;4.95;;;1.63;;
13061;SDS011;6597;52.218;9.882;2023-07-13T07:02:51;3.10;;;1.40;;
13061;SDS011;6597;52.218;9.882;2023-07-13T07:05:18;6.18;;;1.77;;
13061;SDS011;6597;52.218;9.882;2023-07-13T07:07:47;4.05;;;1.60;;
13061;SDS011;6597;52.218;9.882;2023-07-13T07:10:13;2.55;;;1.50;;
13061;SDS011;6597;52.218;9.882;2023-07-13T07:12:40;4.63;;;1.20;;
13061;SDS011;6597;52.218;9.882;2023-07-13T07:15:07;6.30;;;1.27;;
13061;SDS011;6597;52.218;9.882;2023-07-13T07:17:35;3.38;;;1.30;;
13061;SDS011;6597;52.218;9.882;2023-07-13T07:20:01;2.15;;;1.35;;
13061;SDS011;6597;52.218;9.882;2023-07-13T07:22:28;6.72;;;1.67;;
13061;SDS011;6597;52.218;9.882;2023-07-13T07:24:55;3.05;;;1.45;;
13061;SDS011;6597;52.218;9.882;2023-07-13T07:27:21;2.60;;;1.52;;
13061;SDS011;6597;52.218;9.882;2023-07-13T07:29:48;2.33;;;1.23;;
13061;SDS011;6597;52.218;9.882;2023-07-13T07:32:15;2.83;;;1.40;;
13061;SDS011;6597;52.218;9.882;2023-07-13T07:34:42;3.03;;;1.30;;
13061;SDS011;6597;52.218;9.882;2023-07-13T07:37:09;5.47;;;1.67;;
13061;SDS011;6597;52.218;9.882;2023-07-13T07:39:37;3.03;;;1.58;;
13061;SDS011;6597;52.218;9.882;2023-07-13T07:42:04;3.13;;;1.27;;
13061;SDS011;6597;52.218;9.882;2023-07-13T07:44:32;7.53;;;1.75;;
13061;SDS011;6597;52.218;9.882;2023-07-13T07:46:59;3.17;;;1.30;;
13061;SDS011;6597;52.218;9.882;2023-07-13T07:49:26;4.05;;;1.50;;
13061;SDS011;6597;52.218;9.882;2023-07-13T07:51:54;4.80;;;1.30;;
13061;SDS011;6597;52.218;9.882;2023-07-13T07:54:20;2.90;;;1.13;;
13061;SDS011;6597;52.218;9.882;2023-07-13T07:56:47;2.83;;;1.35;;
13061;SDS011;6597;52.218;9.882;2023-07-13T07:59:13;1.92;;;1.25;;
13061;SDS011;6597;52.218;9.882;2023-07-13T08:01:40;4.25;;;1.20;;
13061;SDS011;6597;52.218;9.882;2023-07-13T08:04:06;3.03;;;1.05;;
13061;SDS011;6597;52.218;9.882;2023-07-13T08:06:34;6.97;;;1.38;;
13061;SDS011;6597;52.218;9.882;2023-07-13T08:09:02;3.83;;;1.48;;
13061;SDS011;6597;52.218;9.882;2023-07-13T08:11:29;6.88;;;1.48;;
13061;SDS011;6597;52.218;9.882;2023-07-13T08:13:56;2.67;;;1.35;;
13061;SDS011;6597;52.218;9.882;2023-07-13T08:16:22;8.82;;;1.40;;
13061;SDS011;6597;52.218;9.882;2023-07-13T08:18:49;4.88;;;1.30;;
13061;SDS011;6597;52.218;9.882;2023-07-13T08:21:16;4.57;;;1.60;;
13061;SDS011;6597;52.218;9.882;2023-07-13T08:23:45;2.60;;;1.17;;
13061;SDS011;6597;52.218;9.882;2023-07-13T08:26:12;4.97;;;1.30;;
13061;SDS011;6597;52.218;9.882;2023-07-13T08:28:39;1.65;;;1.30;;
13061;SDS011;6597;52.218;9.882;2023-07-13T08:31:06;2.78;;;1.33;;
13061;SDS011;6597;52.218;9.882;2023-07-13T08:33:34;3.03;;;1.55;;
13061;SDS011;6597;52.218;9.882;2023-07-13T08:36:01;3.20;;;1.33;;
13061;SDS011;6597;52.218;9.882;2023-07-13T08:38:27;2.70;;;1.65;;
13061;SDS011;6597;52.218;9.882;2023-07-13T08:40:55;3.13;;;1.35;;
13061;SDS011;6597;52.218;9.882;2023-07-13T08:43:25;2.53;;;1.70;;
13061;SDS011;6597;52.218;9.882;2023-07-13T08:45:52;2.38;;;1.25;;
13061;SDS011;6597;52.218;9.882;2023-07-13T08:48:24;5.38;;;1.33;;
13061;SDS011;6597;52.218;9.882;2023-07-13T08:50:55;2.88;;;1.38;;
13061;SDS011;6597;52.218;9.882;2023-07-13T08:53:24;5.97;;;1.27;;
13061;SDS011;6597;52.218;9.882;2023-07-13T08:55:57;1.88;;;1.27;;
13061;SDS011;6597;52.218;9.882;2023-07-13T08:58:26;2.20;;;1.35;;
13061;SDS011;6597;52.218;9.882;2023-07-13T09:00:56;3.20;;;1.80;;
13061;SDS011;6597;52.218;9.882;2023-07-13T09:03:30;5.78;;;1.67;;
13061;SDS011;6597;52.218;9.882;2023-07-13T09:09:01;3.30;;;1.55;;
13061;SDS011;6597;52.218;9.882;2023-07-13T09:11:36;4.28;;;1.65;;
13061;SDS011;6597;52.218;9.882;2023-07-13T09:14:26;5.13;;;1.80;;
13061;SDS011;6597;52.218;9.882;2023-07-13T09:17:01;1.40;;;1.30;;
13061;SDS011;6597;52.218;9.882;2023-07-13T09:19:30;2.72;;;1.58;;
13061;SDS011;6597;52.218;9.882;2023-07-13T09:21:59;2.53;;;1.60;;
13061;SDS011;6597;52.218;9.882;2023-07-13T09:24:32;3.20;;;2.00;;
13061;SDS011;6597;52.218;9.882;2023-07-13T09:27:05;2.35;;;1.55;;
13061;SDS011;6597;52.218;9.882;2023-07-13T09:29:45;3.67;;;1.65;;
13061;SDS011;6597;52.218;9.882;2023-07-13T09:32:16;4.10;;;2.00;;
13061;SDS011;6597;52.218;9.882;2023-07-13T09:34:49;6.30;;;1.65;;
13061;SDS011;6597;52.218;9.882;2023-07-13T09:37:17;4.47;;;1.88;;
13061;SDS011;6597;52.218;9.882;2023-07-13T09:39:45;2.15;;;1.75;;
13061;SDS011;6597;52.218;9.882;2023-07-13T09:42:15;3.15;;;1.63;;
13061;SDS011;6597;52.218;9.882;2023-07-13T09:44:50;2.47;;;1.77;;
13061;SDS011;6597;52.218;9.882;2023-07-13T09:47:19;3.95;;;1.85;;
13061;SDS011;6597;52.218;9.882;2023-07-13T09:49:49;6.47;;;1.80;;
13061;SDS011;6597;52.218;9.882;2023-07-13T09:52:21;6.25;;;1.98;;
13061;SDS011;6597;52.218;9.882;2023-07-13T09:54:51;6.55;;;1.90;;
13061;SDS011;6597;52.218;9.882;2023-07-13T09:57:27;4.10;;;2.05;;
13061;SDS011;6597;52.218;9.882;2023-07-13T09:59:56;5.07;;;2.20;;
13061;SDS011;6597;52.218;9.882;2023-07-13T10:02:25;2.97;;;1.92;;
13061;SDS011;6597;52.218;9.882;2023-07-13T10:04:56;7.38;;;2.00;;
13061;SDS011;6597;52.218;9.882;2023-07-13T10:07:24;3.17;;;1.85;;
13061;SDS011;6597;52.218;9.882;2023-07-13T10:09:51;2.65;;;1.95;;
13061;SDS011;6597;52.218;9.882;2023-07-13T10:12:19;3.22;;;2.17;;
13061;SDS011;6597;52.218;9.882;2023-07-13T10:14:49;6.10;;;2.25;;
13061;SDS011;6597;52.218;9.882;2023-07-13T10:17:21;3.05;;;1.95;;
13061;SDS011;6597;52.218;9.882;2023-07-13T10:19:55;4.63;;;2.00;;
13061;SDS011;6597;52.218;9.882;2023-07-13T10:22:29;2.53;;;1.60;;
13061;SDS011;6597;52.218;9.882;2023-07-13T10:25:08;2.90;;;2.05;;
13061;SDS011;6597;52.218;9.882;2023-07-13T10:27:41;7.35;;;2.60;;
13061;SDS011;6597;52.218;9.882;2023-07-13T10:30:11;3.70;;;2.15;;
13061;SDS011;6597;52.218;9.882;2023-07-13T10:32:43;5.72;;;1.83;;
13061;SDS011;6597;52.218;9.882;2023-07-13T10:35:10;5.95;;;1.90;;
13061;SDS011;6597;52.218;9.882;2023-07-13T10:37:40;2.42;;;1.70;;
13061;SDS011;6597;52.218;9.882;2023-07-13T10:40:12;2.95;;;1.85;;
13061;SDS011;6597;52.218;9.882;2023-07-13T10:42:40;9.18;;;1.85;;
13061;SDS011;6597;52.218;9.882;2023-07-13T10:45:13;3.17;;;2.00;;
13061;SDS011;6597;52.218;9.882;2023-07-13T10:47:42;3.45;;;1.60;;
13061;SDS011;6597;52.218;9.882;2023-07-13T10:50:12;1.75;;;1.50;;
13061;SDS011;6597;52.218;9.882;2023-07-13T10:52:44;2.08;;;1.58;;
13061;SDS011;6597;52.218;9.882;2023-07-13T10:58:01;2.00;;;1.33;;
13061;SDS011;6597;52.218;9.882;2023-07-13T11:00:32;3.42;;;1.80;;
13061;SDS011;6597;52.218;9.882;2023-07-13T11:03:11;3.72;;;2.03;;
13061;SDS011;6597;52.218;9.882;2023-07-13T11:05:42;1.98;;;1.45;;
13061;SDS011;6597;52.218;9.882;2023-07-13T11:08:19;5.25;;;1.88;;
13061;SDS011;6597;52.218;9.882;2023-07-13T11:10:57;5.82;;;1.83;;
13061;SDS011;6597;52.218;9.882;2023-07-13T11:13:35;3.97;;;1.80;;
13061;SDS011;6597;52.218;9.882;2023-07-13T11:16:12;2.90;;;1.70;;
13061;SDS011;6597;52.218;9.882;2023-07-13T11:18:41;5.63;;;2.40;;
13061;SDS011;6597;52.218;9.882;2023-07-13T11:21:14;4.75;;;1.90;;
13061;SDS011;6597;52.218;9.882;2023-07-13T11:23:43;3.55;;;1.60;;
13061;SDS011;6597;52.218;9.882;2023-07-13T11:29:07;4.22;;;1.75;;
13061;SDS011;6597;52.218;9.882;2023-07-13T11:31:35;6.22;;;1.60;;
13061;SDS011;6597;52.218;9.882;2023-07-13T11:34:06;6.80;;;1.60;;
13061;SDS011;6597;52.218;9.882;2023-07-13T11:36:39;2.78;;;1.75;;
13061;SDS011;6597;52.218;9.882;2023-07-13T11:39:17;2.25;;;1.75;;
13061;SDS011;6597;52.218;9.882;2023-07-13T11:41:49;5.28;;;2.33;;
13061;SDS011;6597;52.218;9.882;2023-07-13T11:44:19;3.83;;;1.80;;
13061;SDS011;6597;52.218;9.882;2023-07-13T11:46:48;2.38;;;1.70;;
13061;SDS011;6597;52.218;9.882;2023-07-13T11:49:19;6.32;;;1.80;;
13061;SDS011;6597;52.218;9.882;2023-07-13T11:51:47;2.55;;;1.85;;
13061;SDS011;6597;52.218;9.882;2023-07-13T11:54:22;3.05;;;1.50;;
13061;SDS011;6597;52.218;9.882;2023-07-13T11:56:52;5.55;;;1.80;;
13061;SDS011;6597;52.218;9.882;2023-07-13T11:59:21;3.72;;;1.98;;
13061;SDS011;6597;52.218;9.882;2023-07-13T12:01:49;3.28;;;2.10;;
13061;SDS011;6597;52.218;9.882;2023-07-13T12:04:22;5.35;;;1.88;;
13061;SDS011;6597;52.218;9.882;2023-07-13T12:06:55;4.78;;;1.88;;
13061;SDS011;6597;52.218;9.882;2023-07-13T12:09:25;2.53;;;1.88;;
13061;SDS011;6597;52.218;9.882;2023-07-13T12:11:53;1.80;;;1.40;;
13061;SDS011;6597;52.218;9.882;2023-07-13T12:14:20;3.92;;;1.70;;
13061;SDS011;6597;52.218;9.882;2023-07-13T12:16:49;3.92;;;1.80;;
13061;SDS011;6597;52.218;9.882;2023-07-13T12:19:17;3.10;;;1.83;;
13061;SDS011;6597;52.218;9.882;2023-07-13T12:21:47;4.68;;;1.83;;
13061;SDS011;6597;52.218;9.882;2023-07-13T12:24:15;2.45;;;1.92;;
13061;SDS011;6597;52.218;9.882;2023-07-13T12:26:42;2.78;;;1.92;;
13061;SDS011;6597;52.218;9.882;2023-07-13T12:29:12;3.05;;;2.13;;
13061;SDS011;6597;52.218;9.882;2023-07-13T12:31:43;2.97;;;1.90;;
13061;SDS011;6597;52.218;9.882;2023-07-13T12:34:12;2.47;;;1.92;;
13061;SDS011;6597;52.218;9.882;2023-07-13T12:36:40;4.65;;;1.90;;
13061;SDS011;6597;52.218;9.882;2023-07-13T12:39:15;3.65;;;2.22;;
13061;SDS011;6597;52.218;9.882;2023-07-13T12:41:43;3.88;;;1.88;;
13061;SDS011;6597;52.218;9.882;2023-07-13T12:44:11;2.17;;;1.60;;
13061;SDS011;6597;52.218;9.882;2023-07-13T12:46:39;3.95;;;1.60;;
13061;SDS011;6597;52.218;9.882;2023-07-13T12:49:06;3.45;;;1.60;;
13061;SDS011;6597;52.218;9.882;2023-07-13T12:51:34;2.75;;;1.85;;
13061;SDS011;6597;52.218;9.882;2023-07-13T12:54:08;2.38;;;1.90;;
13061;SDS011;6597;52.218;9.882;2023-07-13T12:56:42;3.88;;;1.75;;
13061;SDS011;6597;52.218;9.882;2023-07-13T12:59:14;7.00;;;2.20;;
13061;SDS011;6597;52.218;9.882;2023-07-13T13:01:45;2.28;;;2.08;;
13061;SDS011;6597;52.218;9.882;2023-07-13T13:04:12;5.75;;;2.42;;
13061;SDS011;6597;52.218;9.882;2023-07-13T13:06:39;2.78;;;2.13;;
13061;SDS011;6597;52.218;9.882;2023-07-13T13:09:09;4.38;;;2.53;;
13061;SDS011;6597;52.218;9.882;2023-07-13T13:11:38;3.95;;;2.10;;
13061;SDS011;6597;52.218;9.882;2023-07-13T13:14:07;4.45;;;2.13;;
13061;SDS011;6597;52.218;9.882;2023-07-13T13:16:35;2.97;;;2.25;;
13061;SDS011;6597;52.218;9.882;2023-07-13T13:19:09;6.32;;;2.75;;
13061;SDS011;6597;52.218;9.882;2023-07-13T13:21:39;3.78;;;2.10;;
13061;SDS011;6597;52.218;9.882;2023-07-13T13:24:09;3.05;;;2.40;;
13061;SDS011;6597;52.218;9.882;2023-07-13T13:26:37;3.15;;;2.58;;
13061;SDS011;6597;52.218;9.882;2023-07-13T13:29:04;2.17;;;1.95;;
13061;SDS011;6597;52.218;9.882;2023-07-13T13:31:39;4.07;;;2.83;;
13061;SDS011;6597;52.218;9.882;2023-07-13T13:34:07;3.25;;;2.35;;
13061;SDS011;6597;52.218;9.882;2023-07-13T13:36:35;7.05;;;2.97;;
13061;SDS011;6597;52.218;9.882;2023-07-13T13:39:02;4.65;;;2.92;;
13061;SDS011;6597;52.218;9.882;2023-07-13T13:41:31;4.20;;;2.30;;
13061;SDS011;6597;52.218;9.882;2023-07-13T13:43:58;5.50;;;3.00;;
13061;SDS011;6597;52.218;9.882;2023-07-13T13:46:26;4.07;;;2.83;;
13061;SDS011;6597;52.218;9.882;2023-07-13T13:48:54;2.85;;;1.98;;
13061;SDS011;6597;52.218;9.882;2023-07-13T13:51:22;8.90;;;2.53;;
13061;SDS011;6597;52.218;9.882;2023-07-13T13:53:50;3.33;;;2.20;;
13061;SDS011;6597;52.218;9.882;2023-07-13T13:56:19;2.42;;;1.70;;
13061;SDS011;6597;52.218;9.882;2023-07-13T13:58:46;3.63;;;2.08;;
13061;SDS011;6597;52.218;9.882;2023-07-13T14:01:13;3.78;;;2.30;;
13061;SDS011;6597;52.218;9.882;2023-07-13T14:03:44;3.08;;;2.58;;
13061;SDS011;6597;52.218;9.882;2023-07-13T14:06:13;6.57;;;2.97;;
13061;SDS011;6597;52.218;9.882;2023-07-13T14:08:41;3.25;;;2.42;;
13061;SDS011;6597;52.218;9.882;2023-07-13T14:11:10;5.45;;;2.75;;
13061;SDS011;6597;52.218;9.882;2023-07-13T14:13:38;5.80;;;2.65;;
13061;SDS011;6597;52.218;9.882;2023-07-13T14:16:09;5.97;;;1.92;;
13061;SDS011;6597;52.218;9.882;2023-07-13T14:18:37;2.97;;;1.70;;
13061;SDS011;6597;52.218;9.882;2023-07-13T14:21:09;2.10;;;1.70;;
13061;SDS011;6597;52.218;9.882;2023-07-13T14:23:38;2.28;;;1.95;;
13061;SDS011;6597;52.218;9.882;2023-07-13T14:26:07;1.63;;;1.40;;
13061;SDS011;6597;52.218;9.882;2023-07-13T14:28:37;3.97;;;1.92;;
13061;SDS011;6597;52.218;9.882;2023-07-13T14:31:07;4.60;;;2.13;;
13061;SDS011;6597;52.218;9.882;2023-07-13T14:33:34;3.47;;;2.00;;
13061;SDS011;6597;52.218;9.882;2023-07-13T14:36:01;2.95;;;1.80;;
13061;SDS011;6597;52.218;9.882;2023-07-13T14:38:29;4.40;;;1.90;;
13061;SDS011;6597;52.218;9.882;2023-07-13T14:40:56;2.40;;;1.70;;
13061;SDS011;6597;52.218;9.882;2023-07-13T14:43:22;2.67;;;2.03;;
13061;SDS011;6597;52.218;9.882;2023-07-13T14:45:53;4.60;;;1.88;;
13061;SDS011;6597;52.218;9.882;2023-07-13T14:48:21;4.68;;;1.73;;
13061;SDS011;6597;52.218;9.882;2023-07-13T14:50:50;4.35;;;1.92;;
13061;SDS011;6597;52.218;9.882;2023-07-13T14:53:21;3.17;;;1.73;;
13061;SDS011;6597;52.218;9.882;2023-07-13T14:55:49;5.28;;;1.80;;
13061;SDS011;6597;52.218;9.882;2023-07-13T14:58:16;2.38;;;1.77;;
13061;SDS011;6597;52.218;9.882;2023-07-13T15:00:42;3.05;;;1.70;;
13061;SDS011;6597;52.218;9.882;2023-07-13T15:03:13;2.08;;;1.52;;
13061;SDS011;6597;52.218;9.882;2023-07-13T15:05:44;2.25;;;1.75;;
13061;SDS011;6597;52.218;9.882;2023-07-13T15:08:11;2.80;;;1.58;;
13061;SDS011;6597;52.218;9.882;2023-07-13T15:10:38;2.20;;;1.70;;
13061;SDS011;6597;52.218;9.882;2023-07-13T15:13:14;1.92;;;1.52;;
13061;SDS011;6597;52.218;9.882;2023-07-13T15:15:43;1.90;;;1.42;;
13061;SDS011;6597;52.218;9.882;2023-07-13T15:18:12;2.28;;;1.30;;